createdAt,value
2023-04-19T00:00:09.986Z,16.87
2023-04-19T00:02:38.465Z,18.73
2023-04-19T00:05:06.466Z,18.90
2023-04-19T00:07:33.509Z,18.53
2023-04-19T00:10:00.358Z,19.10
2023-04-19T00:12:27.276Z,17.80
2023-04-19T00:14:54.110Z,19.07
2023-04-19T00:17:21.432Z,18.60
2023-04-19T00:19:48.517Z,21.57
2023-04-19T00:22:15.687Z,18.10
2023-04-19T00:24:42.548Z,17.43
2023-04-19T00:27:09.484Z,16.10
2023-04-19T00:29:36.354Z,21.13
2023-04-19T00:32:05.875Z,18.30
2023-04-19T00:34:32.898Z,18.20
2023-04-19T00:36:59.850Z,18.67
2023-04-19T00:39:26.785Z,20.77
2023-04-19T00:41:53.674Z,18.73
2023-04-19T00:44:20.858Z,21.70
2023-04-19T00:46:48.266Z,19.27
2023-04-19T00:49:17.999Z,19.80
2023-04-19T00:51:45.037Z,17.90
2023-04-19T00:54:12.987Z,19.23
2023-04-19T00:56:40.977Z,19.37
2023-04-19T00:59:07.973Z,19.77
2023-04-19T01:01:34.950Z,17.67
2023-04-19T01:04:02.363Z,19.83
2023-04-19T01:06:30.638Z,20.00
2023-04-19T01:08:58.346Z,18.83
2023-04-19T01:11:25.669Z,19.77
2023-04-19T01:13:52.661Z,20.00
2023-04-19T01:16:19.644Z,20.20
2023-04-19T01:18:46.640Z,19.07
2023-04-19T01:21:13.527Z,18.50
2023-04-19T01:23:40.481Z,21.20
2023-04-19T01:26:07.366Z,19.00
2023-04-19T01:28:34.329Z,18.00
2023-04-19T01:31:01.258Z,20.27
2023-04-19T01:33:28.176Z,21.67
2023-04-19T01:35:55.108Z,19.27
2023-04-19T01:38:22.042Z,20.87
2023-04-19T01:40:48.954Z,19.30
2023-04-19T01:43:18.649Z,19.10
2023-04-19T01:45:46.020Z,19.57
2023-04-19T01:48:12.877Z,18.57
2023-04-19T01:50:39.767Z,19.27
2023-04-19T01:53:06.658Z,19.73
2023-04-19T01:55:33.604Z,20.33
2023-04-19T01:58:00.502Z,20.57
2023-04-19T02:00:28.780Z,20.23
2023-04-19T02:02:55.849Z,21.00
2023-04-19T02:05:22.907Z,23.70
2023-04-19T02:07:49.832Z,24.23
2023-04-19T02:10:16.717Z,26.90
2023-04-19T02:12:43.613Z,20.53
2023-04-19T02:15:10.842Z,24.13
2023-04-19T02:17:38.893Z,21.60
2023-04-19T02:20:08.278Z,20.67
2023-04-19T02:22:35.365Z,25.23
2023-04-19T02:25:02.358Z,21.57
2023-04-19T02:27:31.271Z,22.23
2023-04-19T02:29:58.151Z,18.20
2023-04-19T02:32:25.151Z,20.90
2023-04-19T02:34:52.165Z,23.60
2023-04-19T02:37:19.093Z,25.83
2023-04-19T02:39:46.343Z,19.43
2023-04-19T02:42:13.473Z,19.83
2023-04-19T02:44:40.443Z,23.40
2023-04-19T02:47:08.184Z,30.73
2023-04-19T02:49:37.113Z,25.10
2023-04-19T02:52:04.827Z,28.10
2023-04-19T02:54:33.812Z,20.60
2023-04-19T02:57:01.221Z,24.07
2023-04-19T02:59:28.321Z,21.67
2023-04-19T03:01:58.078Z,22.93
2023-04-19T03:04:25.871Z,20.37
2023-04-19T03:06:53.972Z,17.77
2023-04-19T03:09:21.226Z,19.47
2023-04-19T03:11:48.149Z,19.43
2023-04-19T03:14:16.832Z,21.33
2023-04-19T03:16:43.794Z,23.97
2023-04-19T03:19:10.922Z,27.13
2023-04-19T03:21:45.305Z,23.80
2023-04-19T03:24:12.410Z,24.93
2023-04-19T03:26:43.872Z,23.17
2023-04-19T03:29:11.150Z,25.47
2023-04-19T03:31:48.666Z,22.43
2023-04-19T03:34:15.943Z,22.27
2023-04-19T03:36:46.332Z,20.73
2023-04-19T03:39:13.196Z,21.20
2023-04-19T03:41:41.996Z,24.70
2023-04-19T03:44:17.469Z,23.90
2023-04-19T03:46:46.762Z,19.93
2023-04-19T03:49:16.351Z,22.23
2023-04-19T03:51:46.717Z,24.20
2023-04-19T03:54:13.800Z,23.67
2023-04-19T03:56:41.078Z,21.80
2023-04-19T03:59:09.020Z,22.10
2023-04-19T04:01:42.151Z,21.90
2023-04-19T04:04:09.681Z,21.70
2023-04-19T04:06:36.755Z,20.57
2023-04-19T04:09:04.090Z,19.03
2023-04-19T04:11:31.426Z,21.20
2023-04-19T04:13:58.628Z,22.50
2023-04-19T04:16:31.843Z,19.20
2023-04-19T04:18:58.807Z,21.17
2023-04-19T04:21:28.292Z,21.17
2023-04-19T04:23:58.730Z,24.60
2023-04-19T04:26:39.404Z,21.27
2023-04-19T04:29:17.513Z,20.47
2023-04-19T04:31:45.415Z,19.67
2023-04-19T04:34:14.531Z,19.30
2023-04-19T04:36:50.660Z,23.03
2023-04-19T04:39:19.357Z,20.77
2023-04-19T04:41:47.972Z,21.97
2023-04-19T04:44:15.494Z,23.57
2023-04-19T04:46:44.225Z,24.87
2023-04-19T04:49:13.989Z,24.30
2023-04-19T04:51:43.276Z,21.47
2023-04-19T04:54:10.720Z,19.87
2023-04-19T04:56:38.186Z,22.60
2023-04-19T04:59:05.721Z,26.10
2023-04-19T05:01:36.964Z,21.43
2023-04-19T05:04:04.475Z,22.33
2023-04-19T05:06:32.800Z,22.20
2023-04-19T05:08:59.669Z,21.30
2023-04-19T05:11:32.630Z,20.73
2023-04-19T05:13:59.627Z,20.40
2023-04-19T05:16:27.367Z,23.80
2023-04-19T05:18:55.467Z,21.27
2023-04-19T05:21:23.692Z,23.60
2023-04-19T05:23:53.582Z,25.13
2023-04-19T05:26:21.569Z,21.20
2023-04-19T05:28:50.214Z,20.97
2023-04-19T05:31:26.454Z,25.20
2023-04-19T05:34:09.705Z,20.43
2023-04-19T05:36:36.943Z,21.00
2023-04-19T05:39:04.441Z,20.80
2023-04-19T05:41:31.325Z,22.50
2023-04-19T05:43:58.214Z,19.63
2023-04-19T05:46:26.167Z,20.73
2023-04-19T05:48:53.626Z,23.00
2023-04-19T05:51:39.160Z,22.10
2023-04-19T05:54:12.694Z,19.07
2023-04-19T05:56:50.370Z,20.73
2023-04-19T05:59:17.349Z,19.57
2023-04-19T06:01:44.410Z,20.03
2023-04-19T06:04:12.323Z,21.80
2023-04-19T06:06:39.802Z,19.30
2023-04-19T06:09:07.224Z,17.87
2023-04-19T06:11:43.005Z,23.33
2023-04-19T06:14:14.841Z,20.27
2023-04-19T06:16:42.651Z,20.50
2023-04-19T06:19:09.454Z,20.37
2023-04-19T06:21:36.455Z,20.07
2023-04-19T06:24:03.607Z,21.07
2023-04-19T06:26:30.584Z,20.87
2023-04-19T06:28:57.468Z,21.60
2023-04-19T06:31:24.565Z,21.33
2023-04-19T06:33:51.757Z,20.97
2023-04-19T06:36:18.678Z,20.17
2023-04-19T06:38:46.301Z,19.13
2023-04-19T06:41:13.300Z,22.60
2023-04-19T06:43:40.974Z,18.63
2023-04-19T06:46:08.309Z,22.27
2023-04-19T06:48:35.559Z,20.00
2023-04-19T06:51:02.456Z,20.60
2023-04-19T06:53:29.280Z,20.10
2023-04-19T06:56:01.748Z,23.23
2023-04-19T06:58:29.037Z,19.63
2023-04-19T07:00:56.239Z,20.43
2023-04-19T07:03:23.308Z,21.10
2023-04-19T07:05:52.256Z,20.80
2023-04-19T07:08:19.100Z,20.17
2023-04-19T07:10:45.963Z,19.93
2023-04-19T07:13:12.913Z,23.23
2023-04-19T07:15:39.881Z,23.87
2023-04-19T07:18:07.130Z,23.00
2023-04-19T07:20:34.253Z,20.00
2023-04-19T07:23:01.125Z,22.23
2023-04-19T07:25:28.042Z,22.33
2023-04-19T07:27:56.429Z,22.27
2023-04-19T07:30:23.355Z,19.60
2023-04-19T07:32:51.873Z,20.63
2023-04-19T07:35:19.533Z,20.20
2023-04-19T07:37:46.664Z,22.70
2023-04-19T07:40:14.024Z,21.80
2023-04-19T07:42:43.809Z,22.50
2023-04-19T07:45:11.030Z,21.20
2023-04-19T07:47:37.971Z,17.47
2023-04-19T07:50:07.611Z,20.33
2023-04-19T07:52:34.534Z,21.77
2023-04-19T07:55:01.631Z,17.93
2023-04-19T07:57:28.446Z,17.13
2023-04-19T07:59:58.018Z,19.50
2023-04-19T08:02:28.210Z,21.30
2023-04-19T08:04:55.510Z,18.97
2023-04-19T08:07:23.555Z,19.90
2023-04-19T08:09:50.502Z,20.20
2023-04-19T08:12:32.665Z,17.23
2023-04-19T08:15:14.878Z,19.67
2023-04-19T08:17:47.201Z,21.03
2023-04-19T08:20:14.561Z,20.43
2023-04-19T08:22:41.573Z,20.70
2023-04-19T08:25:09.335Z,19.13
2023-04-19T08:27:36.333Z,21.60
2023-04-19T08:30:03.757Z,19.20
2023-04-19T08:32:30.646Z,18.50
2023-04-19T08:34:57.596Z,20.83
2023-04-19T08:37:24.554Z,20.10
2023-04-19T08:39:51.437Z,16.87
2023-04-19T08:45:13.572Z,16.43
2023-04-19T08:50:24.031Z,17.03
2023-04-19T08:55:28.900Z,18.87
2023-04-19T08:57:56.851Z,17.37
2023-04-19T09:00:23.782Z,21.23
2023-04-19T09:02:56.751Z,18.60
2023-04-19T09:05:24.060Z,19.83
2023-04-19T09:07:51.650Z,21.37
2023-04-19T09:10:20.128Z,19.60
2023-04-19T09:13:07.275Z,28.73
2023-04-19T09:15:39.178Z,18.50
2023-04-19T09:18:10.305Z,16.03
2023-04-19T09:20:38.667Z,17.77
2023-04-19T09:23:08.556Z,17.63
2023-04-19T09:25:52.919Z,18.90
2023-04-19T09:28:22.897Z,17.10
2023-04-19T09:31:00.563Z,16.97
2023-04-19T09:33:40.875Z,18.40
2023-04-19T09:36:08.504Z,18.43
2023-04-19T09:38:49.119Z,17.10
2023-04-19T09:41:19.755Z,18.03
2023-04-19T09:44:07.406Z,20.60
2023-04-19T09:46:36.225Z,17.93
2023-04-19T09:49:33.816Z,21.07
2023-04-19T09:52:13.517Z,17.80
2023-04-19T09:54:41.551Z,19.73
2023-04-19T09:57:08.711Z,18.47
2023-04-19T09:59:35.783Z,18.20
2023-04-19T10:02:05.069Z,19.77
2023-04-19T10:04:49.916Z,20.77
2023-04-19T10:07:30.099Z,19.90
2023-04-19T10:10:11.679Z,18.93
2023-04-19T10:13:11.067Z,17.27
2023-04-19T10:15:50.113Z,18.80
2023-04-19T10:18:19.719Z,19.23
2023-04-19T10:20:58.412Z,19.47
2023-04-19T10:23:25.398Z,22.33
2023-04-19T10:25:57.582Z,19.27
2023-04-19T10:28:24.960Z,22.40
2023-04-19T10:30:58.554Z,17.90
2023-04-19T10:33:36.841Z,20.60
2023-04-19T10:36:04.135Z,22.43
2023-04-19T10:38:39.807Z,19.67
2023-04-19T10:41:13.624Z,20.07
2023-04-19T10:44:05.380Z,21.27
2023-04-19T10:46:32.824Z,23.07
2023-04-19T10:49:01.366Z,19.97
2023-04-19T10:51:33.123Z,21.23
2023-04-19T10:54:01.834Z,22.33
2023-04-19T10:56:34.722Z,21.83
2023-04-19T10:59:01.833Z,23.63
2023-04-19T11:01:43.089Z,21.80
2023-04-19T11:04:15.206Z,25.13
2023-04-19T11:06:53.985Z,21.70
2023-04-19T11:09:24.912Z,22.97
2023-04-19T11:11:53.658Z,23.93
2023-04-19T11:14:25.256Z,23.23
2023-04-19T11:16:52.183Z,25.70
2023-04-19T11:19:19.912Z,24.20
2023-04-19T11:21:47.889Z,22.63
2023-04-19T11:24:18.599Z,26.17
2023-04-19T11:26:46.375Z,23.60
2023-04-19T11:29:13.650Z,22.20
2023-04-19T11:31:43.747Z,20.27
2023-04-19T11:34:10.629Z,18.87
2023-04-19T11:36:47.975Z,19.93
2023-04-19T11:39:14.756Z,17.90
2023-04-19T11:41:41.581Z,19.03
2023-04-19T11:44:15.960Z,18.70
2023-04-19T11:46:43.882Z,17.70
2023-04-19T11:49:10.788Z,17.43
2023-04-19T11:51:42.733Z,18.17
2023-04-19T11:54:15.034Z,18.07
2023-04-19T11:57:01.621Z,17.27
2023-04-19T11:59:29.468Z,18.77
2023-04-19T12:01:56.352Z,19.03
2023-04-19T12:04:23.583Z,19.37
2023-04-19T12:07:00.801Z,20.43
2023-04-19T12:09:27.711Z,21.77
2023-04-19T12:11:54.583Z,21.17
2023-04-19T12:14:23.406Z,19.93
2023-04-19T12:17:16.856Z,23.73
2023-04-19T12:19:46.526Z,20.67
2023-04-19T12:22:20.610Z,21.80
2023-04-19T12:24:47.512Z,20.90
2023-04-19T12:27:17.898Z,22.63
2023-04-19T12:29:45.012Z,23.13
2023-04-19T12:32:13.000Z,20.77
2023-04-19T12:34:39.901Z,19.30
2023-04-19T12:37:06.828Z,20.73
2023-04-19T12:39:33.649Z,19.93
2023-04-19T12:42:01.426Z,20.17
2023-04-19T12:44:28.304Z,17.47
2023-04-19T12:46:57.584Z,16.90
2023-04-19T12:49:24.727Z,15.63
2023-04-19T12:51:51.575Z,17.47
2023-04-19T12:54:18.478Z,17.67
2023-04-19T12:56:45.426Z,15.17
2023-04-19T12:59:12.309Z,15.97
2023-04-19T13:01:39.211Z,16.37
2023-04-19T13:04:07.904Z,16.63
2023-04-19T13:06:34.946Z,16.30
2023-04-19T13:09:01.840Z,14.27
2023-04-19T13:11:31.386Z,16.53
2023-04-19T13:13:58.246Z,17.23
2023-04-19T13:16:25.335Z,15.97
2023-04-19T13:18:54.608Z,16.07
2023-04-19T13:21:23.034Z,15.57
2023-04-19T13:23:50.038Z,16.67
2023-04-19T13:26:16.939Z,14.60
2023-04-19T13:28:43.861Z,16.07
2023-04-19T13:31:10.825Z,15.30
2023-04-19T13:33:37.769Z,18.13
2023-04-19T13:36:04.825Z,16.17
2023-04-19T13:38:31.722Z,19.53
2023-04-19T13:40:59.720Z,18.57
2023-04-19T13:43:26.861Z,19.47
2023-04-19T13:45:54.111Z,15.93
2023-04-19T13:48:21.157Z,17.33
2023-04-19T13:50:50.468Z,16.27
2023-04-19T13:53:18.049Z,17.07
2023-04-19T13:55:44.907Z,19.93
2023-04-19T13:58:11.938Z,16.13
2023-04-19T14:00:39.508Z,16.30
2023-04-19T14:03:06.688Z,15.97
2023-04-19T14:05:33.787Z,15.87
2023-04-19T14:08:00.811Z,17.73
2023-04-19T14:10:27.879Z,16.40
2023-04-19T14:12:54.775Z,16.67
2023-04-19T14:15:23.539Z,14.90
2023-04-19T14:17:50.430Z,15.20
2023-04-19T14:20:17.463Z,16.17
2023-04-19T14:22:45.847Z,13.37
2023-04-19T14:25:15.027Z,13.93
2023-04-19T14:27:42.013Z,13.57
2023-04-19T14:30:09.851Z,15.87
2023-04-19T14:32:37.349Z,16.73
2023-04-19T14:35:04.577Z,20.93
2023-04-19T14:37:31.816Z,15.87
2023-04-19T14:39:58.754Z,15.93
2023-04-19T14:42:25.965Z,14.20
2023-04-19T14:44:52.906Z,15.03
2023-04-19T14:47:20.934Z,14.50
2023-04-19T14:49:47.802Z,15.90
2023-04-19T14:52:14.629Z,13.80
2023-04-19T14:54:42.265Z,14.93
2023-04-19T14:57:09.606Z,14.73
2023-04-19T14:59:36.666Z,15.00
2023-04-19T15:02:03.726Z,17.57
2023-04-19T15:04:30.700Z,16.83
2023-04-19T15:06:57.651Z,14.17
2023-04-19T15:09:24.690Z,20.23
2023-04-19T15:11:51.607Z,15.60
2023-04-19T15:14:19.799Z,15.70
2023-04-19T15:16:46.977Z,13.83
2023-04-19T15:19:13.917Z,13.07
2023-04-19T15:21:40.940Z,11.63
2023-04-19T15:24:08.237Z,13.80
2023-04-19T15:26:35.746Z,11.57
2023-04-19T15:29:02.808Z,11.00
2023-04-19T15:31:31.019Z,10.17
2023-04-19T15:34:02.439Z,11.37
2023-04-19T15:36:29.572Z,7.97
2023-04-19T15:38:57.082Z,8.57
2023-04-19T15:41:24.113Z,8.43
2023-04-19T15:43:51.241Z,6.20
2023-04-19T15:46:19.012Z,4.70
2023-04-19T15:48:48.235Z,4.00
2023-04-19T15:51:15.476Z,5.10
2023-04-19T15:53:42.958Z,3.10
2023-04-19T15:56:10.583Z,8.20
2023-04-19T15:58:37.745Z,4.13
2023-04-19T16:01:07.861Z,4.53
2023-04-19T16:03:34.824Z,3.77
2023-04-19T16:06:01.704Z,3.70
2023-04-19T16:08:28.482Z,4.97
2023-04-19T16:10:55.424Z,6.00
2023-04-19T16:13:22.209Z,3.30
2023-04-19T16:15:49.035Z,4.97
2023-04-19T16:18:15.964Z,5.33
2023-04-19T16:20:42.910Z,4.50
2023-04-19T16:23:09.853Z,2.63
2023-04-19T16:25:36.681Z,6.00
2023-04-19T16:28:03.675Z,3.00
2023-04-19T16:30:30.916Z,5.03
2023-04-19T16:32:58.585Z,3.93
2023-04-19T16:35:26.509Z,5.53
2023-04-19T16:37:55.842Z,5.60
2023-04-19T16:40:24.226Z,3.83
2023-04-19T16:42:51.160Z,2.60
2023-04-19T16:45:18.231Z,3.93
2023-04-19T16:47:46.200Z,3.67
2023-04-19T16:50:14.153Z,3.77
2023-04-19T16:52:41.399Z,3.90
2023-04-19T16:55:09.328Z,4.23
2023-04-19T16:57:36.834Z,3.53
2023-04-19T17:00:05.788Z,4.50
2023-04-19T17:02:33.563Z,3.47
2023-04-19T17:05:00.987Z,3.67
2023-04-19T17:07:28.321Z,4.50
2023-04-19T17:09:55.781Z,8.07
2023-04-19T17:12:22.917Z,4.03
2023-04-19T17:14:49.944Z,3.53
2023-04-19T17:17:19.863Z,5.03
2023-04-19T17:19:46.996Z,8.30
2023-04-19T17:22:17.055Z,8.27
2023-04-19T17:24:43.917Z,8.23
2023-04-19T17:27:11.657Z,6.00
2023-04-19T17:29:38.704Z,6.20
2023-04-19T17:32:06.722Z,6.47
2023-04-19T17:34:36.037Z,5.40
2023-04-19T17:37:03.519Z,4.67
2023-04-19T17:39:30.417Z,4.03
2023-04-19T17:41:57.312Z,5.37
2023-04-19T17:44:24.581Z,6.40
2023-04-19T17:46:51.458Z,7.03
2023-04-19T17:49:20.143Z,4.43
2023-04-19T17:51:47.552Z,9.10
2023-04-19T17:54:15.840Z,6.60
2023-04-19T17:56:42.898Z,6.27
2023-04-19T17:59:09.831Z,5.57
2023-04-19T18:01:36.802Z,7.03
2023-04-19T18:04:04.511Z,6.97
2023-04-19T18:06:31.793Z,11.43
2023-04-19T18:08:58.918Z,7.43
2023-04-19T18:11:28.320Z,8.43
2023-04-19T18:13:55.837Z,14.57
2023-04-19T18:16:22.965Z,5.53
2023-04-19T18:18:49.987Z,11.27
2023-04-19T18:21:18.475Z,8.47
2023-04-19T18:23:45.531Z,10.50
2023-04-19T18:26:12.362Z,10.83
2023-04-19T18:28:39.740Z,7.77
2023-04-19T18:31:07.975Z,11.17
2023-04-19T18:33:35.311Z,7.83
2023-04-19T18:36:02.141Z,11.80
2023-04-19T18:38:29.215Z,8.90
2023-04-19T18:40:56.109Z,7.67
2023-04-19T18:43:24.525Z,8.13
2023-04-19T18:45:58.009Z,6.87
2023-04-19T18:48:28.138Z,6.33
2023-04-19T18:50:56.916Z,4.17
2023-04-19T18:53:25.188Z,8.70
2023-04-19T18:55:57.440Z,6.70
2023-04-19T18:58:28.390Z,9.27
2023-04-19T19:00:56.012Z,10.80
2023-04-19T19:03:41.757Z,4.90
2023-04-19T19:06:10.867Z,11.07
2023-04-19T19:08:37.923Z,7.03
2023-04-19T19:13:35.798Z,11.07
2023-04-19T19:16:02.928Z,7.20
2023-04-19T19:18:29.851Z,7.67
2023-04-19T19:21:03.233Z,11.70
2023-04-19T19:23:35.701Z,7.77
2023-04-19T19:26:03.934Z,7.80
2023-04-19T19:28:30.791Z,5.47
2023-04-19T19:30:57.668Z,6.77
2023-04-19T19:33:24.448Z,10.23
2023-04-19T19:35:51.275Z,10.30
2023-04-19T19:38:18.117Z,8.87
2023-04-19T19:43:14.730Z,9.47
2023-04-19T19:45:41.833Z,5.60
2023-04-19T19:48:09.003Z,7.80
2023-04-19T19:51:07.356Z,5.60
2023-04-19T19:53:22.731Z,7.50
2023-04-19T19:55:50.067Z,6.07
2023-04-19T19:58:42.921Z,8.10
2023-04-19T20:01:03.710Z,6.90
2023-04-19T20:03:37.619Z,4.73
2023-04-19T20:08:41.156Z,5.77
2023-04-19T20:11:11.005Z,5.70
2023-04-19T20:13:37.793Z,7.73
2023-04-19T20:16:04.733Z,12.27
2023-04-19T20:18:32.277Z,5.77
2023-04-19T20:20:59.293Z,9.10
2023-04-19T20:23:26.449Z,9.27
2023-04-19T20:25:53.309Z,4.43
2023-04-19T20:28:20.276Z,9.43
2023-04-19T20:30:47.539Z,5.97
2023-04-19T20:33:14.438Z,6.90
2023-04-19T20:35:42.022Z,5.30
2023-04-19T20:38:09.698Z,5.27
2023-04-19T20:40:36.619Z,5.47
2023-04-19T20:43:03.497Z,7.40
2023-04-19T20:45:31.315Z,7.07
2023-04-19T20:47:58.741Z,8.10
2023-04-19T20:50:25.884Z,6.40
2023-04-19T20:52:52.890Z,4.73
2023-04-19T20:55:19.754Z,6.53
2023-04-19T20:57:46.864Z,8.83
2023-04-19T21:00:16.693Z,6.53
2023-04-19T21:02:44.431Z,8.10
2023-04-19T21:05:11.794Z,7.20
2023-04-19T21:07:38.704Z,6.17
2023-04-19T21:10:06.417Z,6.83
2023-04-19T21:12:34.396Z,5.20
2023-04-19T21:15:01.286Z,6.63
2023-04-19T21:17:28.194Z,5.63
2023-04-19T21:19:55.155Z,7.63
2023-04-19T21:22:22.049Z,8.73
2023-04-19T21:24:49.005Z,7.20
2023-04-19T21:27:15.927Z,7.87
2023-04-19T21:29:42.744Z,7.70
2023-04-19T21:32:10.435Z,8.00
2023-04-19T21:34:38.332Z,7.80
2023-04-19T21:37:05.233Z,7.37
2023-04-19T21:39:32.138Z,6.90
2023-04-19T21:41:59.047Z,10.37
2023-04-19T21:44:25.868Z,5.83
2023-04-19T21:46:52.775Z,6.57
2023-04-19T21:49:19.712Z,7.70
2023-04-19T21:51:46.533Z,7.53
2023-04-19T21:54:20.298Z,6.27
2023-04-19T21:56:53.784Z,9.63
2023-04-19T21:59:20.597Z,6.27
2023-04-19T22:01:47.468Z,8.53
2023-04-19T22:04:15.234Z,5.87
2023-04-19T22:06:45.968Z,9.03
2023-04-19T22:09:13.637Z,6.37
2023-04-19T22:11:40.476Z,7.40
2023-04-19T22:14:07.844Z,7.90
2023-04-19T22:16:35.306Z,8.10
2023-04-19T22:19:03.297Z,7.30
2023-04-19T22:21:30.984Z,7.07
2023-04-19T22:23:57.907Z,8.37
2023-04-19T22:26:26.196Z,7.17
2023-04-19T22:28:54.166Z,7.80
2023-04-19T22:31:21.048Z,6.27
2023-04-19T22:33:48.083Z,9.03
2023-04-19T22:36:14.911Z,6.57
2023-04-19T22:38:41.732Z,6.07
2023-04-19T22:41:08.581Z,6.90
2023-04-19T22:43:35.565Z,6.90
2023-04-19T22:46:03.719Z,6.37
2023-04-19T22:48:31.569Z,6.30
2023-04-19T22:50:59.944Z,8.93
2023-04-19T22:53:26.785Z,7.87
2023-04-19T22:55:53.599Z,6.53
2023-04-19T22:58:20.426Z,7.77
2023-04-19T23:00:47.383Z,7.47
2023-04-19T23:03:14.216Z,7.13
2023-04-19T23:05:41.780Z,8.43
2023-04-19T23:08:09.328Z,7.07
2023-04-19T23:10:38.985Z,7.50
2023-04-19T23:13:06.820Z,7.10
2023-04-19T23:15:34.462Z,6.80
2023-04-19T23:18:03.747Z,8.17
2023-04-19T23:20:30.783Z,7.73
2023-04-19T23:22:57.582Z,6.47
2023-04-19T23:25:25.116Z,7.03
2023-04-19T23:27:52.022Z,5.57
2023-04-19T23:30:19.394Z,7.43
2023-04-19T23:32:46.272Z,6.00
2023-04-19T23:35:13.196Z,8.27
2023-04-19T23:37:41.011Z,7.93
2023-04-19T23:40:09.224Z,6.63
2023-04-19T23:42:39.225Z,6.07
2023-04-19T23:45:06.841Z,6.43
2023-04-19T23:47:34.265Z,6.40
2023-04-19T23:50:01.204Z,8.73
2023-04-19T23:52:28.220Z,11.73
2023-04-19T23:54:55.074Z,8.33
2023-04-19T23:57:21.859Z,9.97
2023-04-19T23:59:48.707Z,10.13
